^^
Your Local Weather - Clay, NY Station Historical Data
Daily Summary for January 7, 2018 Units:  Both    English   Metric
« Previous Day
Next Day »
Daily Weekly Monthly Yearly Custom
  High: Low: Average:
Temperature: 24.9 °F /  -3.9 °C -10.0 °F /  -23.3 °C 5.2 °F /  -14.9 °C
Dew Point: 11.0 °F /  -11.7 °C -14.2 °F /  -25.7 °C -2.2 °F /  -19 °C
Humidity: 84% 49% 72%
Wind Speed: 6.0mph /  9.7km/h - 1.3mph /  2.1km/h
Wind Gust: 9.0mph /  14.5km/h - -
Wind- - SE
Pressure: 30.56 in /  1034.8 hPa 30.11 in /  1019.5 hPa -
Precipitation: 0.00 in /  0 mm    
Historical Graphs
 
 
Tabular Data for January 7, 2018
Time Temperature Dew Point Pressure Wind Wind Speed Wind Gust Humidity Rainfall Rate (Hourly) solar
00:02 2.0 °F /  -16.7 °C -1.7 °F /  -18.7 °C 30.50in /  1032.7hPa NW 1.0mph /  1.6km/h 1.0mph /  1.6km/h 84% 0.00in /  0mm 0 W/m2
00:10 1.9 °F /  -16.7 °C -1.8 °F /  -18.8 °C 30.51in /  1033.1hPa NE 1.0mph /  1.6km/h 1.0mph /  1.6km/h 84% 0.00in /  0mm 0 W/m2
00:16 1.5 °F /  -16.9 °C -2.5 °F /  -19.2 °C 30.51in /  1033.1hPa NNE 1.0mph /  1.6km/h 2.0mph /  3.2km/h 83% 0.00in /  0mm 0 W/m2
00:22 1.0 °F /  -17.2 °C -3.0 °F /  -19.4 °C 30.51in /  1033.1hPa NNE 1.0mph /  1.6km/h 2.0mph /  3.2km/h 83% 0.00in /  0mm 0 W/m2
00:28 0.4 °F /  -17.6 °C -3.5 °F /  -19.7 °C 30.51in /  1033.1hPa NE 1.0mph /  1.6km/h 3.0mph /  4.8km/h 83% 0.00in /  0mm 0 W/m2
00:34 0.1 °F /  -17.7 °C -3.8 °F /  -19.9 °C 30.51in /  1033.1hPa North 1.0mph /  1.6km/h 3.0mph /  4.8km/h 83% 0.00in /  0mm 0 W/m2
00:40 -0.2 °F /  -17.9 °C -4.1 °F /  -20.1 °C 30.52in /  1033.4hPa North 2.0mph /  3.2km/h 2.0mph /  3.2km/h 83% 0.00in /  0mm 0 W/m2
00:46 -0.4 °F /  -18 °C -4.6 °F /  -20.3 °C 30.52in /  1033.4hPa North 1.0mph /  1.6km/h 2.0mph /  3.2km/h 82% 0.00in /  0mm 0 W/m2
00:54 -0.5 °F /  -18.1 °C -4.4 °F /  -20.2 °C 30.52in /  1033.4hPa Calm   1.0mph /  1.6km/h 83% 0.00in /  0mm 0 W/m2
01:04 -0.7 °F /  -18.2 °C -4.6 °F /  -20.3 °C 30.52in /  1033.4hPa NNW 1.0mph /  1.6km/h 1.0mph /  1.6km/h 83% 0.00in /  0mm 0 W/m2
01:10 -1.0 °F /  -18.3 °C -5.2 °F /  -20.7 °C 30.52in /  1033.4hPa NNE 1.0mph /  1.6km/h 2.0mph /  3.2km/h 82% 0.00in /  0mm 0 W/m2
01:16 -1.3 °F /  -18.5 °C -5.5 °F /  -20.8 °C 30.52in /  1033.4hPa NE 1.0mph /  1.6km/h 2.0mph /  3.2km/h 82% 0.00in /  0mm 0 W/m2
01:28 -1.7 °F /  -18.7 °C -6.1 °F /  -21.2 °C 30.52in /  1033.4hPa North 2.0mph /  3.2km/h 3.0mph /  4.8km/h 81% 0.00in /  0mm 0 W/m2
01:34 -1.9 °F /  -18.8 °C -6.3 °F /  -21.3 °C 30.52in /  1033.4hPa NNW 2.0mph /  3.2km/h 3.0mph /  4.8km/h 81% 0.00in /  0mm 0 W/m2
01:42 -2.0 °F /  -18.9 °C -6.1 °F /  -21.2 °C 30.52in /  1033.4hPa North 1.0mph /  1.6km/h 1.0mph /  1.6km/h 82% 0.00in /  0mm 0 W/m2
01:50 -2.1 °F /  -18.9 °C -6.2 °F /  -21.2 °C 30.52in /  1033.4hPa North 1.0mph /  1.6km/h 1.0mph /  1.6km/h 82% 0.00in /  0mm 0 W/m2
01:56 -2.4 °F /  -19.1 °C -6.8 °F /  -21.6 °C 30.52in /  1033.4hPa NE 1.0mph /  1.6km/h 2.0mph /  3.2km/h 81% 0.00in /  0mm 0 W/m2
02:02 -2.6 °F /  -19.2 °C -7.0 °F /  -21.7 °C 30.53in /  1033.7hPa Calm   1.0mph /  1.6km/h 81% 0.00in /  0mm 0 W/m2
02:08 -2.7 °F /  -19.3 °C -7.1 °F /  -21.7 °C 30.54in /  1034.1hPa Calm   1.0mph /  1.6km/h 81% 0.00in /  0mm 0 W/m2
02:14 -3.0 °F /  -19.4 °C -7.4 °F /  -21.9 °C 30.54in /  1034.1hPa Calm     81% 0.00in /  0mm 0 W/m2
02:20 -3.2 °F /  -19.6 °C -7.6 °F /  -22 °C 30.54in /  1034.1hPa Calm     81% 0.00in /  0mm 0 W/m2
02:26 -3.5 °F /  -19.7 °C -7.9 °F /  -22.2 °C 30.54in /  1034.1hPa Calm     81% 0.00in /  0mm 0 W/m2
02:34 -3.6 °F /  -19.8 °C -7.7 °F /  -22.1 °C 30.54in /  1034.1hPa Calm     82% 0.00in /  0mm 0 W/m2
02:40 -3.8 °F /  -19.9 °C -8.2 °F /  -22.3 °C 30.54in /  1034.1hPa Calm     81% 0.00in /  0mm 0 W/m2
02:46 -3.9 °F /  -19.9 °C -8.3 °F /  -22.4 °C 30.54in /  1034.1hPa Calm     81% 0.00in /  0mm 0 W/m2
02:52 -4.2 °F /  -20.1 °C -8.6 °F /  -22.6 °C 30.55in /  1034.4hPa Calm     81% 0.00in /  0mm 0 W/m2
03:02 -4.6 °F /  -20.3 °C -8.9 °F /  -22.7 °C 30.54in /  1034.1hPa Calm     81% 0.00in /  0mm 0 W/m2
03:10 -5.0 °F /  -20.6 °C -9.3 °F /  -22.9 °C 30.54in /  1034.1hPa Calm     81% 0.00in /  0mm 0 W/m2
03:16 -5.3 °F /  -20.7 °C -9.6 °F /  -23.1 °C 30.54in /  1034.1hPa Calm     81% 0.00in /  0mm 0 W/m2
03:26 -5.9 °F /  -21.1 °C -10.2 °F /  -23.4 °C 30.54in /  1034.1hPa Calm     81% 0.00in /  0mm 0 W/m2
03:32 -6.4 °F /  -21.3 °C -10.7 °F /  -23.7 °C 30.54in /  1034.1hPa Calm     81% 0.00in /  0mm 0 W/m2
03:38 -7.1 °F /  -21.7 °C -11.4 °F /  -24.1 °C 30.54in /  1034.1hPa Calm     81% 0.00in /  0mm 0 W/m2
03:44 -7.8 °F /  -22.1 °C -12.1 °F /  -24.5 °C 30.54in /  1034.1hPa Calm     81% 0.00in /  0mm 0 W/m2
03:50 -8.3 °F /  -22.4 °C -12.6 °F /  -24.8 °C 30.55in /  1034.4hPa Calm     81% 0.00in /  0mm 0 W/m2
04:04 -8.8 °F /  -22.7 °C -13.1 °F /  -25.1 °C 30.56in /  1034.8hPa Calm     81% 0.00in /  0mm 0 W/m2
04:10 -8.4 °F /  -22.4 °C -12.7 °F /  -24.8 °C 30.56in /  1034.8hPa Calm     81% 0.00in /  0mm 0 W/m2
04:24 -8.9 °F /  -22.7 °C -13.2 °F /  -25.1 °C 30.54in /  1034.1hPa Calm     81% 0.00in /  0mm 0 W/m2
04:30 -9.2 °F /  -22.9 °C -13.4 °F /  -25.2 °C 30.55in /  1034.4hPa Calm     81% 0.00in /  0mm 0 W/m2
04:38 -9.8 °F /  -23.2 °C -14.0 °F /  -25.6 °C 30.54in /  1034.1hPa Calm   1.0mph /  1.6km/h 81% 0.00in /  0mm 0 W/m2
04:46 -10.0 °F /  -23.3 °C -14.2 °F /  -25.7 °C 30.54in /  1034.1hPa Calm     81% 0.00in /  0mm 0 W/m2
04:52 -9.9 °F /  -23.3 °C -14.1 °F /  -25.6 °C 30.54in /  1034.1hPa Calm     81% 0.00in /  0mm 0 W/m2
04:58 -9.7 °F /  -23.2 °C -13.9 °F /  -25.5 °C 30.54in /  1034.1hPa Calm     81% 0.00in /  0mm 0 W/m2
05:06 -9.5 °F /  -23.1 °C -13.7 °F /  -25.4 °C 30.54in /  1034.1hPa Calm   1.0mph /  1.6km/h 81% 0.00in /  0mm 0 W/m2
05:12 -8.9 °F /  -22.7 °C -13.2 °F /  -25.1 °C 30.54in /  1034.1hPa Calm     81% 0.00in /  0mm 0 W/m2
05:18 -8.6 °F /  -22.6 °C -12.6 °F /  -24.8 °C 30.54in /  1034.1hPa Calm     82% 0.00in /  0mm 0 W/m2
05:24 -8.3 °F /  -22.4 °C -12.3 °F /  -24.6 °C 30.54in /  1034.1hPa Calm     82% 0.00in /  0mm 0 W/m2
05:32 -8.0 °F /  -22.2 °C -12.0 °F /  -24.4 °C 30.54in /  1034.1hPa Calm     82% 0.00in /  0mm 0 W/m2
05:38 -7.9 °F /  -22.2 °C -12.2 °F /  -24.6 °C 30.54in /  1034.1hPa Calm   1.0mph /  1.6km/h 81% 0.00in /  0mm 0 W/m2
05:44 -7.6 °F /  -22 °C -11.6 °F /  -24.2 °C 30.54in /  1034.1hPa Calm     82% 0.00in /  0mm 0 W/m2
05:50 -7.5 °F /  -21.9 °C -11.5 °F /  -24.2 °C 30.54in /  1034.1hPa Calm     82% 0.00in /  0mm 0 W/m2
05:56 -7.2 °F /  -21.8 °C -11.5 °F /  -24.2 °C 30.54in /  1034.1hPa Calm     81% 0.00in /  0mm 0 W/m2
06:04 -6.5 °F /  -21.4 °C -10.8 °F /  -23.8 °C 30.54in /  1034.1hPa Calm     81% 0.00in /  0mm 0 W/m2
06:10 -6.5 °F /  -21.4 °C -10.8 °F /  -23.8 °C 30.54in /  1034.1hPa Calm     81% 0.00in /  0mm 0 W/m2
06:16 -6.5 °F /  -21.4 °C -10.8 °F /  -23.8 °C 30.55in /  1034.4hPa Calm     81% 0.00in /  0mm 0 W/m2
06:22 -6.6 °F /  -21.4 °C -10.9 °F /  -23.8 °C 30.55in /  1034.4hPa Calm     81% 0.00in /  0mm 0 W/m2
06:30 -6.6 °F /  -21.4 °C -10.9 °F /  -23.8 °C 30.56in /  1034.8hPa Calm     81% 0.00in /  0mm 0 W/m2
06:48 -6.6 °F /  -21.4 °C -10.9 °F /  -23.8 °C 30.56in /  1034.8hPa Calm     81% 0.00in /  0mm 0 W/m2
06:54 -6.6 °F /  -21.4 °C -10.9 °F /  -23.8 °C 30.56in /  1034.8hPa Calm     81% 0.00in /  0mm 0 W/m2
07:08 -6.6 °F /  -21.4 °C -10.9 °F /  -23.8 °C 30.56in /  1034.8hPa Calm     81% 0.00in /  0mm 0 W/m2
07:14 -6.6 °F /  -21.4 °C -10.9 °F /  -23.8 °C 30.56in /  1034.8hPa Calm     81% 0.00in /  0mm 0 W/m2
07:20 -6.8 °F /  -21.6 °C -11.1 °F /  -23.9 °C 30.56in /  1034.8hPa Calm     81% 0.00in /  0mm 0 W/m2
07:36 -7.2 °F /  -21.8 °C -11.7 °F /  -24.3 °C 30.55in /  1034.4hPa Calm     80% 0.00in /  0mm 0 W/m2
07:42 -7.3 °F /  -21.8 °C -11.8 °F /  -24.3 °C 30.54in /  1034.1hPa Calm     80% 0.00in /  0mm 0 W/m2
07:48 -7.4 °F /  -21.9 °C -11.9 °F /  -24.4 °C 30.54in /  1034.1hPa Calm     80% 0.00in /  0mm 0 W/m2
07:54 -7.2 °F /  -21.8 °C -11.7 °F /  -24.3 °C 30.55in /  1034.4hPa Calm     80% 0.00in /  0mm 0 W/m2
08:04 -6.9 °F /  -21.6 °C -11.4 °F /  -24.1 °C 30.54in /  1034.1hPa Calm   1.0mph /  1.6km/h 80% 0.00in /  0mm 0 W/m2
08:10 -6.8 °F /  -21.6 °C -11.4 °F /  -24.1 °C 30.54in /  1034.1hPa Calm   2.0mph /  3.2km/h 80% 0.00in /  0mm 0 W/m2
08:16 -6.6 °F /  -21.4 °C -11.2 °F /  -24 °C 30.54in /  1034.1hPa Calm   2.0mph /  3.2km/h 80% 0.00in /  0mm 0 W/m2
08:22 -6.5 °F /  -21.4 °C -11.1 °F /  -23.9 °C 30.54in /  1034.1hPa Calm   1.0mph /  1.6km/h 80% 0.00in /  0mm 0 W/m2
08:28 -6.4 °F /  -21.3 °C -11.2 °F /  -24 °C 30.54in /  1034.1hPa Calm   1.0mph /  1.6km/h 79% 0.00in /  0mm 0 W/m2
08:44 -6.5 °F /  -21.4 °C -11.3 °F /  -24.1 °C 30.54in /  1034.1hPa Calm   1.0mph /  1.6km/h 79% 0.00in /  0mm 14 W/m2
08:50 -5.7 °F /  -20.9 °C -10.5 °F /  -23.6 °C 30.54in /  1034.1hPa ESE 1.0mph /  1.6km/h 1.0mph /  1.6km/h 79% 0.00in /  0mm 7 W/m2
08:56 -5.7 °F /  -20.9 °C -10.8 °F /  -23.8 °C 30.54in /  1034.1hPa East 1.0mph /  1.6km/h 2.0mph /  3.2km/h 78% 0.00in /  0mm 7 W/m2
09:04 -5.8 °F /  -21 °C -10.9 °F /  -23.8 °C 30.54in /  1034.1hPa ENE 1.0mph /  1.6km/h 1.0mph /  1.6km/h 78% 0.00in /  0mm 11 W/m2
09:14 -4.3 °F /  -20.2 °C -9.4 °F /  -23 °C 30.55in /  1034.4hPa ENE 1.0mph /  1.6km/h 1.0mph /  1.6km/h 78% 0.00in /  0mm 12 W/m2
09:22 -3.5 °F /  -19.7 °C -8.9 °F /  -22.7 °C 30.54in /  1034.1hPa ESE 1.0mph /  1.6km/h 1.0mph /  1.6km/h 77% 0.00in /  0mm 18 W/m2
09:30 -3.9 °F /  -19.9 °C -9.6 °F /  -23.1 °C 30.54in /  1034.1hPa East 1.0mph /  1.6km/h 1.0mph /  1.6km/h 76% 0.00in /  0mm 12 W/m2
09:36 -4.1 °F /  -20.1 °C -9.5 °F /  -23.1 °C 30.54in /  1034.1hPa East 1.0mph /  1.6km/h 1.0mph /  1.6km/h 77% 0.00in /  0mm 12 W/m2
09:42 -4.0 °F /  -20 °C -9.4 °F /  -23 °C 30.54in /  1034.1hPa ENE 1.0mph /  1.6km/h 1.0mph /  1.6km/h 77% 0.00in /  0mm 18 W/m2
09:48 -2.8 °F /  -19.3 °C -8.2 °F /  -22.3 °C 30.54in /  1034.1hPa ENE 1.0mph /  1.6km/h 1.0mph /  1.6km/h 77% 0.00in /  0mm 23 W/m2
09:56 -1.9 °F /  -18.8 °C -7.6 °F /  -22 °C 30.54in /  1034.1hPa ESE 1.0mph /  1.6km/h 2.0mph /  3.2km/h 76% 0.00in /  0mm 25 W/m2
10:02 -1.6 °F /  -18.7 °C -7.3 °F /  -21.8 °C 30.53in /  1033.7hPa ENE 1.0mph /  1.6km/h 3.0mph /  4.8km/h 76% 0.00in /  0mm 28 W/m2
10:08 -1.6 °F /  -18.7 °C -7.6 °F /  -22 °C 30.54in /  1034.1hPa ENE 1.0mph /  1.6km/h 3.0mph /  4.8km/h 75% 0.00in /  0mm 28 W/m2
10:14 -0.4 °F /  -18 °C -5.9 °F /  -21.1 °C 30.53in /  1033.7hPa ESE 1.0mph /  1.6km/h 1.0mph /  1.6km/h 77% 0.00in /  0mm 33 W/m2
10:24 0.4 °F /  -17.6 °C -5.4 °F /  -20.8 °C 30.53in /  1033.7hPa SE 1.0mph /  1.6km/h 1.0mph /  1.6km/h 76% 0.00in /  0mm 19 W/m2
10:30 0.8 °F /  -17.3 °C -5.0 °F /  -20.6 °C 30.53in /  1033.7hPa East 1.0mph /  1.6km/h 2.0mph /  3.2km/h 76% 0.00in /  0mm 25 W/m2
10:36 1.3 °F /  -17.1 °C -4.5 °F /  -20.3 °C 30.52in /  1033.4hPa East 1.0mph /  1.6km/h 2.0mph /  3.2km/h 76% 0.00in /  0mm 30 W/m2
10:44 2.5 °F /  -16.4 °C -3.6 °F /  -19.8 °C 30.51in /  1033.1hPa ESE 1.0mph /  1.6km/h 2.0mph /  3.2km/h 75% 0.00in /  0mm 35 W/m2
10:54 2.7 °F /  -16.3 °C -3.4 °F /  -19.7 °C 30.50in /  1032.7hPa East 1.0mph /  1.6km/h 2.0mph /  3.2km/h 75% 0.00in /  0mm 14 W/m2
11:00 3.1 °F /  -16.1 °C -2.8 °F /  -19.3 °C 30.50in /  1032.7hPa SE 1.0mph /  1.6km/h 1.0mph /  1.6km/h 76% 0.00in /  0mm 26 W/m2
11:04 3.5 °F /  -15.8 °C -2.7 °F /  -19.3 °C 30.49in /  1032.4hPa East 1.0mph /  1.6km/h 1.0mph /  1.6km/h 75% 0.00in /  0mm 28 W/m2
11:10 4.4 °F /  -15.3 °C -1.8 °F /  -18.8 °C 30.48in /  1032.1hPa ESE 1.0mph /  1.6km/h 1.0mph /  1.6km/h 75% 0.00in /  0mm 28 W/m2
11:16 4.7 °F /  -15.2 °C -1.5 °F /  -18.6 °C 30.48in /  1032.1hPa ENE 1.0mph /  1.6km/h 2.0mph /  3.2km/h 75% 0.00in /  0mm 33 W/m2
11:24 5.0 °F /  -15 °C -1.5 °F /  -18.6 °C 30.47in /  1031.7hPa ENE 1.0mph /  1.6km/h 3.0mph /  4.8km/h 74% 0.00in /  0mm 25 W/m2
11:30 5.5 °F /  -14.7 °C -1.0 °F /  -18.3 °C 30.47in /  1031.7hPa ENE 1.0mph /  1.6km/h 1.0mph /  1.6km/h 74% 0.00in /  0mm 25 W/m2
11:36 5.9 °F /  -14.5 °C -0.6 °F /  -18.1 °C 30.46in /  1031.4hPa ENE 1.0mph /  1.6km/h 2.0mph /  3.2km/h 74% 0.00in /  0mm 21 W/m2
11:42 5.8 °F /  -14.6 °C -1.3 °F /  -18.5 °C 30.46in /  1031.4hPa ENE 1.0mph /  1.6km/h 1.0mph /  1.6km/h 72% 0.00in /  0mm 25 W/m2
11:48 5.8 °F /  -14.6 °C -1.0 °F /  -18.3 °C 30.46in /  1031.4hPa NE 1.0mph /  1.6km/h 2.0mph /  3.2km/h 73% 0.00in /  0mm 28 W/m2
11:54 6.1 °F /  -14.4 °C -0.7 °F /  -18.2 °C 30.45in /  1031hPa East 1.0mph /  1.6km/h 3.0mph /  4.8km/h 73% 0.00in /  0mm 23 W/m2
12:04 6.2 °F /  -14.3 °C -0.9 °F /  -18.3 °C 30.45in /  1031hPa East 1.0mph /  1.6km/h 3.0mph /  4.8km/h 72% 0.00in /  0mm 25 W/m2
12:10 6.2 °F /  -14.3 °C -1.2 °F /  -18.4 °C 30.45in /  1031hPa East 2.0mph /  3.2km/h 2.0mph /  3.2km/h 71% 0.00in /  0mm 25 W/m2
12:16 6.7 °F /  -14.1 °C -0.4 °F /  -18 °C 30.44in /  1030.7hPa ENE 2.0mph /  3.2km/h 3.0mph /  4.8km/h 72% 0.00in /  0mm 28 W/m2
12:22 7.4 °F /  -13.7 °C 0.6 °F /  -17.4 °C 30.43in /  1030.4hPa ENE 2.0mph /  3.2km/h 2.0mph /  3.2km/h 73% 0.00in /  0mm 25 W/m2
12:28 8.1 °F /  -13.3 °C 1.2 °F /  -17.1 °C 30.43in /  1030.4hPa SE 1.0mph /  1.6km/h 2.0mph /  3.2km/h 73% 0.00in /  0mm 32 W/m2
12:38 11.0 °F /  -11.7 °C 4.0 °F /  -15.6 °C 30.42in /  1030hPa South 1.0mph /  1.6km/h 3.0mph /  4.8km/h 73% 0.00in /  0mm 39 W/m2
12:44 11.8 °F /  -11.2 °C 4.2 °F /  -15.4 °C 30.41in /  1029.7hPa South 2.0mph /  3.2km/h 5.0mph /  8km/h 71% 0.00in /  0mm 40 W/m2
12:50 11.9 °F /  -11.2 °C 3.7 °F /  -15.7 °C 30.40in /  1029.3hPa SW 3.0mph /  4.8km/h 3.0mph /  4.8km/h 69% 0.00in /  0mm 39 W/m2
12:56 12.4 °F /  -10.9 °C 4.5 °F /  -15.3 °C 30.40in /  1029.3hPa SSE 3.0mph /  4.8km/h 5.0mph /  8km/h 70% 0.00in /  0mm 40 W/m2
13:03 12.1 °F /  -11.1 °C 3.9 °F /  -15.6 °C 30.39in /  1029hPa SW 3.0mph /  4.8km/h 3.0mph /  4.8km/h 69% 0.00in /  0mm 44 W/m2
13:08 12.9 °F /  -10.6 °C 4.6 °F /  -15.2 °C 30.39in /  1029hPa SSW 2.0mph /  3.2km/h 4.0mph /  6.4km/h 69% 0.00in /  0mm 44 W/m2
13:14 13.1 °F /  -10.5 °C 4.2 °F /  -15.4 °C 30.38in /  1028.7hPa SSE 2.0mph /  3.2km/h 6.0mph /  9.7km/h 67% 0.00in /  0mm 35 W/m2
13:20 12.3 °F /  -10.9 °C 3.1 °F /  -16.1 °C 30.37in /  1028.3hPa SSE 4.0mph /  6.4km/h 6.0mph /  9.7km/h 66% 0.00in /  0mm 32 W/m2
13:30 13.0 °F /  -10.6 °C 4.1 °F /  -15.5 °C 30.36in /  1028hPa SE 3.0mph /  4.8km/h 3.0mph /  4.8km/h 67% 0.00in /  0mm 35 W/m2
13:38 12.9 °F /  -10.6 °C 3.7 °F /  -15.7 °C 30.36in /  1028hPa SSE 3.0mph /  4.8km/h 3.0mph /  4.8km/h 66% 0.00in /  0mm 35 W/m2
13:44 13.3 °F /  -10.4 °C 3.4 °F /  -15.9 °C 30.35in /  1027.7hPa SE 3.0mph /  4.8km/h 5.0mph /  8km/h 64% 0.00in /  0mm 33 W/m2
13:50 13.3 °F /  -10.4 °C 3.7 °F /  -15.7 °C 30.35in /  1027.7hPa SSE 3.0mph /  4.8km/h 3.0mph /  4.8km/h 65% 0.00in /  0mm 32 W/m2
13:58 13.7 °F /  -10.2 °C 3.8 °F /  -15.7 °C 30.35in /  1027.7hPa SSE 3.0mph /  4.8km/h 4.0mph /  6.4km/h 64% 0.00in /  0mm 28 W/m2
14:06 13.8 °F /  -10.1 °C 3.5 °F /  -15.8 °C 30.35in /  1027.7hPa ESE 3.0mph /  4.8km/h 4.0mph /  6.4km/h 63% 0.00in /  0mm 32 W/m2
14:12 14.0 °F /  -10 °C 3.4 °F /  -15.9 °C 30.34in /  1027.3hPa SE 3.0mph /  4.8km/h 4.0mph /  6.4km/h 62% 0.00in /  0mm 35 W/m2
14:18 14.4 °F /  -9.8 °C 3.4 °F /  -15.9 °C 30.34in /  1027.3hPa SE 3.0mph /  4.8km/h 4.0mph /  6.4km/h 61% 0.00in /  0mm 35 W/m2
14:24 14.7 °F /  -9.6 °C 3.7 °F /  -15.7 °C 30.34in /  1027.3hPa South 3.0mph /  4.8km/h 4.0mph /  6.4km/h 61% 0.00in /  0mm 30 W/m2
14:30 14.5 °F /  -9.7 °C 2.4 °F /  -16.4 °C 30.34in /  1027.3hPa SE 3.0mph /  4.8km/h 3.0mph /  4.8km/h 58% 0.00in /  0mm 30 W/m2
14:36 14.9 °F /  -9.5 °C 2.8 °F /  -16.2 °C 30.33in /  1027hPa South 3.0mph /  4.8km/h 4.0mph /  6.4km/h 58% 0.00in /  0mm 32 W/m2
14:46 14.9 °F /  -9.5 °C 2.0 °F /  -16.7 °C 30.32in /  1026.6hPa SE 4.0mph /  6.4km/h 5.0mph /  8km/h 56% 0.00in /  0mm 30 W/m2
14:52 15.0 °F /  -9.4 °C 1.7 °F /  -16.8 °C 30.32in /  1026.6hPa South 3.0mph /  4.8km/h 6.0mph /  9.7km/h 55% 0.00in /  0mm 33 W/m2
14:58 15.0 °F /  -9.4 °C 1.7 °F /  -16.8 °C 30.31in /  1026.3hPa SSE 4.0mph /  6.4km/h 7.0mph /  11.3km/h 55% 0.00in /  0mm 21 W/m2
15:04 14.9 °F /  -9.5 °C 1.2 °F /  -17.1 °C 30.30in /  1026hPa SSE 4.0mph /  6.4km/h 7.0mph /  11.3km/h 54% 0.00in /  0mm 21 W/m2
15:10 15.0 °F /  -9.4 °C 2.1 °F /  -16.6 °C 30.30in /  1026hPa SE 3.0mph /  4.8km/h 3.0mph /  4.8km/h 56% 0.00in /  0mm 32 W/m2
15:22 15.2 °F /  -9.3 °C 2.3 °F /  -16.5 °C 30.29in /  1025.6hPa SSE 2.0mph /  3.2km/h 3.0mph /  4.8km/h 56% 0.00in /  0mm 9 W/m2
15:30 15.4 °F /  -9.2 °C 2.9 °F /  -16.2 °C 30.29in /  1025.6hPa SSE 1.0mph /  1.6km/h 1.0mph /  1.6km/h 57% 0.00in /  0mm 11 W/m2
15:36 15.7 °F /  -9.1 °C 3.5 °F /  -15.8 °C 30.29in /  1025.6hPa SSE 1.0mph /  1.6km/h 1.0mph /  1.6km/h 58% 0.00in /  0mm 9 W/m2
15:42 14.8 °F /  -9.6 °C 3.8 °F /  -15.7 °C 30.29in /  1025.6hPa ENE 1.0mph /  1.6km/h 1.0mph /  1.6km/h 61% 0.00in /  0mm 7 W/m2
16:04 13.6 °F /  -10.2 °C 4.7 °F /  -15.2 °C 30.27in /  1024.9hPa East 1.0mph /  1.6km/h 2.0mph /  3.2km/h 67% 0.00in /  0mm 5 W/m2
16:10 13.7 °F /  -10.2 °C 4.8 °F /  -15.1 °C 30.27in /  1024.9hPa East 1.0mph /  1.6km/h 1.0mph /  1.6km/h 67% 0.00in /  0mm 0 W/m2
16:18 13.6 °F /  -10.2 °C 5.6 °F /  -14.7 °C 30.26in /  1024.6hPa East 1.0mph /  1.6km/h 2.0mph /  3.2km/h 70% 0.00in /  0mm 0 W/m2
16:20 13.6 °F /  -10.2 °C 5.3 °F /  -14.8 °C 30.26in /  1024.6hPa East 1.0mph /  1.6km/h 1.0mph /  1.6km/h 69% 0.00in /  0mm 0 W/m2
16:26 13.6 °F /  -10.2 °C 5.9 °F /  -14.5 °C 30.26in /  1024.6hPa ESE 1.0mph /  1.6km/h 3.0mph /  4.8km/h 71% 0.00in /  0mm 0 W/m2
16:34 15.2 °F /  -9.3 °C 5.2 °F /  -14.9 °C 30.25in /  1024.3hPa SE 2.0mph /  3.2km/h 5.0mph /  8km/h 64% 0.00in /  0mm 0 W/m2
16:42 16.1 °F /  -8.8 °C 4.6 °F /  -15.2 °C 30.24in /  1023.9hPa SE 2.0mph /  3.2km/h 4.0mph /  6.4km/h 60% 0.00in /  0mm 0 W/m2
16:48 16.5 °F /  -8.6 °C 4.7 °F /  -15.2 °C 30.24in /  1023.9hPa SSE 3.0mph /  4.8km/h 4.0mph /  6.4km/h 59% 0.00in /  0mm 0 W/m2
17:04 16.6 °F /  -8.6 °C 4.7 °F /  -15.2 °C 30.23in /  1023.6hPa South 2.0mph /  3.2km/h 2.0mph /  3.2km/h 59% 0.00in /  0mm 0 W/m2
17:12 16.8 °F /  -8.4 °C 4.2 °F /  -15.4 °C 30.23in /  1023.6hPa SE 2.0mph /  3.2km/h 3.0mph /  4.8km/h 57% 0.00in /  0mm 0 W/m2
17:18 17.0 °F /  -8.3 °C 4.7 °F /  -15.2 °C 30.22in /  1023.2hPa SE 2.0mph /  3.2km/h 5.0mph /  8km/h 58% 0.00in /  0mm 0 W/m2
17:26 17.3 °F /  -8.2 °C 4.7 °F /  -15.2 °C 30.22in /  1023.2hPa SSE 2.0mph /  3.2km/h 3.0mph /  4.8km/h 57% 0.00in /  0mm 0 W/m2
17:38 17.3 °F /  -8.2 °C 6.1 °F /  -14.4 °C 30.22in /  1023.2hPa ESE 1.0mph /  1.6km/h 2.0mph /  3.2km/h 61% 0.00in /  0mm 0 W/m2
17:46 16.8 °F /  -8.4 °C 7.1 °F /  -13.8 °C 30.21in /  1022.9hPa Calm   1.0mph /  1.6km/h 65% 0.00in /  0mm 0 W/m2
17:58 16.6 °F /  -8.6 °C 7.9 °F /  -13.4 °C 30.21in /  1022.9hPa Calm     68% 0.00in /  0mm 0 W/m2
18:04 16.7 °F /  -8.5 °C 8.0 °F /  -13.3 °C 30.21in /  1022.9hPa Calm     68% 0.00in /  0mm 0 W/m2
18:10 16.8 °F /  -8.4 °C 8.4 °F /  -13.1 °C 30.20in /  1022.6hPa Calm     69% 0.00in /  0mm 0 W/m2
18:16 16.7 °F /  -8.5 °C 8.3 °F /  -13.2 °C 30.20in /  1022.6hPa Calm     69% 0.00in /  0mm 0 W/m2
18:22 16.6 °F /  -8.6 °C 8.8 °F /  -12.9 °C 30.19in /  1022.2hPa Calm   2.0mph /  3.2km/h 71% 0.00in /  0mm 0 W/m2
18:28 16.5 °F /  -8.6 °C 9.4 °F /  -12.6 °C 30.19in /  1022.2hPa Calm   2.0mph /  3.2km/h 73% 0.00in /  0mm 0 W/m2
18:34 16.7 °F /  -8.5 °C 9.5 °F /  -12.5 °C 30.19in /  1022.2hPa Calm     73% 0.00in /  0mm 0 W/m2
18:40 17.0 °F /  -8.3 °C 9.5 °F /  -12.5 °C 30.19in /  1022.2hPa Calm     72% 0.00in /  0mm 0 W/m2
18:46 17.3 °F /  -8.2 °C 9.2 °F /  -12.7 °C 30.19in /  1022.2hPa Calm     70% 0.00in /  0mm 0 W/m2
18:52 17.1 °F /  -8.3 °C 9.6 °F /  -12.4 °C 30.19in /  1022.2hPa Calm     72% 0.00in /  0mm 0 W/m2
18:58 17.0 °F /  -8.3 °C 9.8 °F /  -12.3 °C 30.18in /  1021.9hPa Calm     73% 0.00in /  0mm 0 W/m2
19:08 16.8 °F /  -8.4 °C 9.9 °F /  -12.3 °C 30.18in /  1021.9hPa Calm     74% 0.00in /  0mm 0 W/m2
19:18 16.9 °F /  -8.4 °C 10.3 °F /  -12.1 °C 30.18in /  1021.9hPa Calm     75% 0.00in /  0mm 0 W/m2
19:26 16.9 °F /  -8.4 °C 10.6 °F /  -11.9 °C 30.18in /  1021.9hPa Calm     76% 0.00in /  0mm 0 W/m2
19:40 18.7 °F /  -7.4 °C 9.6 °F /  -12.4 °C 30.17in /  1021.6hPa ESE 1.0mph /  1.6km/h 1.0mph /  1.6km/h 67% 0.00in /  0mm 0 W/m2
19:46 19.4 °F /  -7 °C 9.2 °F /  -12.7 °C 30.18in /  1021.9hPa SE 1.0mph /  1.6km/h 3.0mph /  4.8km/h 64% 0.00in /  0mm 0 W/m2
19:52 20.1 °F /  -6.6 °C 7.7 °F /  -13.5 °C 30.16in /  1021.2hPa SSW 2.0mph /  3.2km/h 2.0mph /  3.2km/h 58% 0.00in /  0mm 0 W/m2
20:02 21.3 °F /  -5.9 °C 6.4 °F /  -14.2 °C 30.16in /  1021.2hPa South 4.0mph /  6.4km/h 6.0mph /  9.7km/h 52% 0.00in /  0mm 0 W/m2
20:10 21.7 °F /  -5.7 °C 6.3 °F /  -14.3 °C 30.15in /  1020.9hPa South 5.0mph /  8km/h 5.0mph /  8km/h 51% 0.00in /  0mm 0 W/m2
20:16 21.8 °F /  -5.7 °C 6.0 °F /  -14.4 °C 30.15in /  1020.9hPa SW 5.0mph /  8km/h 5.0mph /  8km/h 50% 0.00in /  0mm 0 W/m2
20:22 22.0 °F /  -5.6 °C 6.2 °F /  -14.3 °C 30.14in /  1020.5hPa South 5.0mph /  8km/h 7.0mph /  11.3km/h 50% 0.00in /  0mm 0 W/m2
20:28 22.2 °F /  -5.4 °C 5.9 °F /  -14.5 °C 30.14in /  1020.5hPa South 6.0mph /  9.7km/h 9.0mph /  14.5km/h 49% 0.00in /  0mm 0 W/m2
20:34 22.3 °F /  -5.4 °C 6.0 °F /  -14.4 °C 30.14in /  1020.5hPa SSW 6.0mph /  9.7km/h 7.0mph /  11.3km/h 49% 0.00in /  0mm 0 W/m2
20:40 22.3 °F /  -5.4 °C 6.4 °F /  -14.2 °C 30.14in /  1020.5hPa SW 5.0mph /  8km/h 6.0mph /  9.7km/h 50% 0.00in /  0mm 0 W/m2
20:46 22.5 °F /  -5.3 °C 6.2 °F /  -14.3 °C 30.13in /  1020.2hPa South 5.0mph /  8km/h 9.0mph /  14.5km/h 49% 0.00in /  0mm 0 W/m2
21:02 22.8 °F /  -5.1 °C 6.9 °F /  -13.9 °C 30.13in /  1020.2hPa South 4.0mph /  6.4km/h 8.0mph /  12.9km/h 50% 0.00in /  0mm 0 W/m2
21:12 23.1 °F /  -4.9 °C 7.2 °F /  -13.8 °C 30.13in /  1020.2hPa South 3.0mph /  4.8km/h 6.0mph /  9.7km/h 50% 0.00in /  0mm 0 W/m2
21:18 23.3 °F /  -4.8 °C 7.8 °F /  -13.4 °C 30.13in /  1020.2hPa SSE 4.0mph /  6.4km/h 6.0mph /  9.7km/h 51% 0.00in /  0mm 0 W/m2
21:28 23.4 °F /  -4.8 °C 8.3 °F /  -13.2 °C 30.13in /  1020.2hPa South 3.0mph /  4.8km/h 5.0mph /  8km/h 52% 0.00in /  0mm 0 W/m2
21:36 23.7 °F /  -4.6 °C 8.6 °F /  -13 °C 30.13in /  1020.2hPa SSW 4.0mph /  6.4km/h 5.0mph /  8km/h 52% 0.00in /  0mm 0 W/m2
21:42 24.0 °F /  -4.4 °C 8.9 °F /  -12.8 °C 30.13in /  1020.2hPa SW 4.0mph /  6.4km/h 5.0mph /  8km/h 52% 0.00in /  0mm 0 W/m2
22:04 24.3 °F /  -4.3 °C 10.0 °F /  -12.2 °C 30.12in /  1019.9hPa South 3.0mph /  4.8km/h 4.0mph /  6.4km/h 54% 0.00in /  0mm 0 W/m2
22:28 24.9 °F /  -3.9 °C 11.0 °F /  -11.7 °C 30.11in /  1019.5hPa SSW 4.0mph /  6.4km/h 6.0mph /  9.7km/h 55% 0.00in /  0mm 0 W/m2
Country Meadow, Clay, NY, USA
Compliments of Weather Underground - 2 mb